sensor_id;sensor_type;location;lat;lon;timestamp;temperature;humidity
29663;DHT22;16578;53.266;7.920;2024-03-29T00:02:03;11.40;73.80
29663;DHT22;16578;53.266;7.920;2024-03-29T00:04:29;11.40;73.80
29663;DHT22;16578;53.266;7.920;2024-03-29T00:06:55;11.40;73.80
29663;DHT22;16578;53.266;7.920;2024-03-29T00:09:21;11.40;74.70
29663;DHT22;16578;53.266;7.920;2024-03-29T00:11:46;11.40;73.70
29663;DHT22;16578;53.266;7.920;2024-03-29T00:14:12;11.40;73.70
29663;DHT22;16578;53.266;7.920;2024-03-29T00:16:37;11.40;73.70
29663;DHT22;16578;53.266;7.920;2024-03-29T00:19:03;11.40;73.60
29663;DHT22;16578;53.266;7.920;2024-03-29T00:21:28;11.40;73.60
29663;DHT22;16578;53.266;7.920;2024-03-29T00:23:54;11.40;73.50
29663;DHT22;16578;53.266;7.920;2024-03-29T00:26:19;11.40;73.50
29663;DHT22;16578;53.266;7.920;2024-03-29T00:28:45;11.40;73.50
29663;DHT22;16578;53.266;7.920;2024-03-29T00:31:11;11.40;73.50
29663;DHT22;16578;53.266;7.920;2024-03-29T00:33:36;11.40;73.40
29663;DHT22;16578;53.266;7.920;2024-03-29T00:36:02;11.40;73.40
29663;DHT22;16578;53.266;7.920;2024-03-29T00:38:28;11.40;73.40
29663;DHT22;16578;53.266;7.920;2024-03-29T00:40:53;11.40;73.30
29663;DHT22;16578;53.266;7.920;2024-03-29T00:43:19;11.40;73.20
29663;DHT22;16578;53.266;7.920;2024-03-29T00:45:44;11.40;73.30
29663;DHT22;16578;53.266;7.920;2024-03-29T00:48:10;11.40;73.20
29663;DHT22;16578;53.266;7.920;2024-03-29T00:50:35;11.40;73.30
29663;DHT22;16578;53.266;7.920;2024-03-29T00:53:03;11.40;73.30
29663;DHT22;16578;53.266;7.920;2024-03-29T00:55:29;11.40;73.30
29663;DHT22;16578;53.266;7.920;2024-03-29T00:57:55;11.40;73.20
29663;DHT22;16578;53.266;7.920;2024-03-29T01:00:21;11.40;73.20
29663;DHT22;16578;53.266;7.920;2024-03-29T01:02:46;11.40;73.30
29663;DHT22;16578;53.266;7.920;2024-03-29T01:05:12;11.40;73.20
29663;DHT22;16578;53.266;7.920;2024-03-29T01:07:40;11.40;73.10
29663;DHT22;16578;53.266;7.920;2024-03-29T01:10:07;11.40;73.10
29663;DHT22;16578;53.266;7.920;2024-03-29T01:12:34;11.40;73.10
29663;DHT22;16578;53.266;7.920;2024-03-29T01:15:00;11.30;73.00
29663;DHT22;16578;53.266;7.920;2024-03-29T01:17:26;11.30;73.00
29663;DHT22;16578;53.266;7.920;2024-03-29T01:19:51;11.30;73.00
29663;DHT22;16578;53.266;7.920;2024-03-29T01:22:17;11.30;73.00
29663;DHT22;16578;53.266;7.920;2024-03-29T01:24:42;11.30;73.10
29663;DHT22;16578;53.266;7.920;2024-03-29T01:27:08;11.30;73.10
29663;DHT22;16578;53.266;7.920;2024-03-29T01:29:33;11.30;73.00
29663;DHT22;16578;53.266;7.920;2024-03-29T01:31:59;11.30;73.00
29663;DHT22;16578;53.266;7.920;2024-03-29T01:34:24;11.30;73.00
29663;DHT22;16578;53.266;7.920;2024-03-29T01:36:50;11.30;73.00
29663;DHT22;16578;53.266;7.920;2024-03-29T01:39:15;11.30;73.00
29663;DHT22;16578;53.266;7.920;2024-03-29T01:41:44;11.30;73.00
29663;DHT22;16578;53.266;7.920;2024-03-29T01:44:09;11.30;73.00
29663;DHT22;16578;53.266;7.920;2024-03-29T01:46:36;11.30;72.90
29663;DHT22;16578;53.266;7.920;2024-03-29T01:49:02;11.30;72.90
29663;DHT22;16578;53.266;7.920;2024-03-29T01:51:28;11.30;72.90
29663;DHT22;16578;53.266;7.920;2024-03-29T01:53:54;11.30;72.90
29663;DHT22;16578;53.266;7.920;2024-03-29T01:56:21;11.30;72.90
29663;DHT22;16578;53.266;7.920;2024-03-29T01:58:49;11.30;72.90
29663;DHT22;16578;53.266;7.920;2024-03-29T02:01:16;11.30;72.90
29663;DHT22;16578;53.266;7.920;2024-03-29T02:03:43;11.30;72.90
29663;DHT22;16578;53.266;7.920;2024-03-29T02:06:09;11.30;72.90
29663;DHT22;16578;53.266;7.920;2024-03-29T02:08:36;11.30;72.80
29663;DHT22;16578;53.266;7.920;2024-03-29T02:11:03;11.30;72.90
29663;DHT22;16578;53.266;7.920;2024-03-29T02:13:29;11.30;72.90
29663;DHT22;16578;53.266;7.920;2024-03-29T02:15:54;11.20;72.80
29663;DHT22;16578;53.266;7.920;2024-03-29T02:18:20;11.30;72.80
29663;DHT22;16578;53.266;7.920;2024-03-29T02:20:46;11.20;72.70
29663;DHT22;16578;53.266;7.920;2024-03-29T02:23:18;11.20;72.80
29663;DHT22;16578;53.266;7.920;2024-03-29T02:25:44;11.20;72.80
29663;DHT22;16578;53.266;7.920;2024-03-29T02:28:10;11.20;72.90
29663;DHT22;16578;53.266;7.920;2024-03-29T02:30:43;11.20;73.00
29663;DHT22;16578;53.266;7.920;2024-03-29T02:33:08;11.20;72.90
29663;DHT22;16578;53.266;7.920;2024-03-29T02:35:34;11.20;72.90
29663;DHT22;16578;53.266;7.920;2024-03-29T02:37:59;11.20;72.90
29663;DHT22;16578;53.266;7.920;2024-03-29T02:40:25;11.30;72.90
29663;DHT22;16578;53.266;7.920;2024-03-29T02:42:50;11.30;72.80
29663;DHT22;16578;53.266;7.920;2024-03-29T02:45:16;11.30;72.80
29663;DHT22;16578;53.266;7.920;2024-03-29T02:47:42;11.30;72.70
29663;DHT22;16578;53.266;7.920;2024-03-29T02:50:10;11.20;73.50
29663;DHT22;16578;53.266;7.920;2024-03-29T02:52:36;11.30;72.70
29663;DHT22;16578;53.266;7.920;2024-03-29T02:55:02;11.30;72.60
29663;DHT22;16578;53.266;7.920;2024-03-29T02:57:27;11.30;72.60
29663;DHT22;16578;53.266;7.920;2024-03-29T02:59:53;11.30;72.60
29663;DHT22;16578;53.266;7.920;2024-03-29T03:02:18;11.20;72.50
29663;DHT22;16578;53.266;7.920;2024-03-29T03:04:44;11.20;72.50
29663;DHT22;16578;53.266;7.920;2024-03-29T03:07:10;11.20;72.50
29663;DHT22;16578;53.266;7.920;2024-03-29T03:09:54;11.20;72.40
29663;DHT22;16578;53.266;7.920;2024-03-29T03:12:38;11.20;72.50
29663;DHT22;16578;53.266;7.920;2024-03-29T03:15:04;11.20;72.50
29663;DHT22;16578;53.266;7.920;2024-03-29T03:17:30;11.20;72.50
29663;DHT22;16578;53.266;7.920;2024-03-29T03:19:56;11.20;72.40
29663;DHT22;16578;53.266;7.920;2024-03-29T03:22:22;11.20;72.50
29663;DHT22;16578;53.266;7.920;2024-03-29T03:24:48;11.20;72.50
29663;DHT22;16578;53.266;7.920;2024-03-29T03:27:13;11.20;72.50
29663;DHT22;16578;53.266;7.920;2024-03-29T03:29:39;11.20;72.50
29663;DHT22;16578;53.266;7.920;2024-03-29T03:32:05;11.20;72.40
29663;DHT22;16578;53.266;7.920;2024-03-29T03:34:31;11.20;72.40
29663;DHT22;16578;53.266;7.920;2024-03-29T03:36:57;11.20;72.40
29663;DHT22;16578;53.266;7.920;2024-03-29T03:39:22;11.20;72.40
29663;DHT22;16578;53.266;7.920;2024-03-29T03:41:48;11.20;72.30
29663;DHT22;16578;53.266;7.920;2024-03-29T03:44:15;11.20;72.30
29663;DHT22;16578;53.266;7.920;2024-03-29T03:46:41;11.20;72.30
29663;DHT22;16578;53.266;7.920;2024-03-29T03:49:06;11.20;72.30
29663;DHT22;16578;53.266;7.920;2024-03-29T03:51:32;11.20;72.30
29663;DHT22;16578;53.266;7.920;2024-03-29T03:53:58;11.20;72.20
29663;DHT22;16578;53.266;7.920;2024-03-29T03:56:23;11.20;72.20
29663;DHT22;16578;53.266;7.920;2024-03-29T03:58:49;11.20;72.10
29663;DHT22;16578;53.266;7.920;2024-03-29T04:01:14;11.20;72.10
29663;DHT22;16578;53.266;7.920;2024-03-29T04:03:40;11.20;72.10
29663;DHT22;16578;53.266;7.920;2024-03-29T04:06:06;11.20;72.10
29663;DHT22;16578;53.266;7.920;2024-03-29T04:08:32;11.20;72.10
29663;DHT22;16578;53.266;7.920;2024-03-29T04:11:01;11.20;72.10
29663;DHT22;16578;53.266;7.920;2024-03-29T04:13:27;11.20;72.10
29663;DHT22;16578;53.266;7.920;2024-03-29T04:15:53;11.20;72.10
29663;DHT22;16578;53.266;7.920;2024-03-29T04:18:18;11.20;72.20
29663;DHT22;16578;53.266;7.920;2024-03-29T04:20:44;11.30;72.20
29663;DHT22;16578;53.266;7.920;2024-03-29T04:23:09;11.30;72.10
29663;DHT22;16578;53.266;7.920;2024-03-29T04:25:35;11.30;72.10
29663;DHT22;16578;53.266;7.920;2024-03-29T04:28:00;11.30;72.00
29663;DHT22;16578;53.266;7.920;2024-03-29T04:30:26;11.30;72.00
29663;DHT22;16578;53.266;7.920;2024-03-29T04:32:51;11.30;72.00
29663;DHT22;16578;53.266;7.920;2024-03-29T04:35:17;11.30;72.00
29663;DHT22;16578;53.266;7.920;2024-03-29T04:37:42;11.30;71.90
29663;DHT22;16578;53.266;7.920;2024-03-29T04:40:08;11.30;71.90
29663;DHT22;16578;53.266;7.920;2024-03-29T04:42:34;11.40;71.90
29663;DHT22;16578;53.266;7.920;2024-03-29T04:45:00;11.30;71.90
29663;DHT22;16578;53.266;7.920;2024-03-29T04:47:26;11.30;71.80
29663;DHT22;16578;53.266;7.920;2024-03-29T04:49:52;11.40;71.90
29663;DHT22;16578;53.266;7.920;2024-03-29T04:52:17;11.40;71.90
29663;DHT22;16578;53.266;7.920;2024-03-29T04:54:43;11.40;71.90
29663;DHT22;16578;53.266;7.920;2024-03-29T04:57:09;11.40;71.70
29663;DHT22;16578;53.266;7.920;2024-03-29T04:59:35;11.40;71.80
29663;DHT22;16578;53.266;7.920;2024-03-29T05:02:00;11.40;71.80
29663;DHT22;16578;53.266;7.920;2024-03-29T05:04:26;11.40;71.70
29663;DHT22;16578;53.266;7.920;2024-03-29T05:06:56;11.40;71.70
29663;DHT22;16578;53.266;7.920;2024-03-29T05:09:22;11.40;71.60
29663;DHT22;16578;53.266;7.920;2024-03-29T05:11:48;11.50;71.60
29663;DHT22;16578;53.266;7.920;2024-03-29T05:14:18;11.40;71.50
29663;DHT22;16578;53.266;7.920;2024-03-29T05:16:47;11.50;71.50
29663;DHT22;16578;53.266;7.920;2024-03-29T05:19:13;11.40;71.40
29663;DHT22;16578;53.266;7.920;2024-03-29T05:21:40;11.50;71.50
29663;DHT22;16578;53.266;7.920;2024-03-29T05:24:06;11.50;71.40
29663;DHT22;16578;53.266;7.920;2024-03-29T05:26:32;11.50;71.40
29663;DHT22;16578;53.266;7.920;2024-03-29T05:28:58;11.50;71.50
29663;DHT22;16578;53.266;7.920;2024-03-29T05:31:24;11.50;71.50
29663;DHT22;16578;53.266;7.920;2024-03-29T05:33:50;11.50;71.40
29663;DHT22;16578;53.266;7.920;2024-03-29T05:36:15;11.50;71.40
29663;DHT22;16578;53.266;7.920;2024-03-29T05:38:41;11.60;71.40
29663;DHT22;16578;53.266;7.920;2024-03-29T05:41:07;11.60;71.40
29663;DHT22;16578;53.266;7.920;2024-03-29T05:43:33;11.60;71.40
29663;DHT22;16578;53.266;7.920;2024-03-29T05:45:58;11.60;71.30
29663;DHT22;16578;53.266;7.920;2024-03-29T05:48:26;11.70;71.40
29663;DHT22;16578;53.266;7.920;2024-03-29T05:50:52;11.70;71.30
29663;DHT22;16578;53.266;7.920;2024-03-29T05:53:18;11.70;71.30
29663;DHT22;16578;53.266;7.920;2024-03-29T05:55:43;11.70;71.20
29663;DHT22;16578;53.266;7.920;2024-03-29T05:58:09;11.70;71.10
29663;DHT22;16578;53.266;7.920;2024-03-29T06:00:34;11.70;71.10
29663;DHT22;16578;53.266;7.920;2024-03-29T06:03:01;11.70;71.00
29663;DHT22;16578;53.266;7.920;2024-03-29T06:05:29;11.80;71.00
29663;DHT22;16578;53.266;7.920;2024-03-29T06:07:55;11.80;71.10
29663;DHT22;16578;53.266;7.920;2024-03-29T06:10:21;11.80;71.00
29663;DHT22;16578;53.266;7.920;2024-03-29T06:12:46;11.80;70.80
29663;DHT22;16578;53.266;7.920;2024-03-29T06:15:12;11.80;70.80
29663;DHT22;16578;53.266;7.920;2024-03-29T06:17:56;11.90;70.90
29663;DHT22;16578;53.266;7.920;2024-03-29T06:20:23;11.90;70.90
29663;DHT22;16578;53.266;7.920;2024-03-29T06:22:48;11.90;70.80
29663;DHT22;16578;53.266;7.920;2024-03-29T06:25:14;12.00;70.80
29663;DHT22;16578;53.266;7.920;2024-03-29T06:27:40;12.00;70.60
29663;DHT22;16578;53.266;7.920;2024-03-29T06:30:09;12.00;70.70
29663;DHT22;16578;53.266;7.920;2024-03-29T06:32:34;12.10;70.70
29663;DHT22;16578;53.266;7.920;2024-03-29T06:35:00;12.10;70.70
29663;DHT22;16578;53.266;7.920;2024-03-29T06:37:26;12.10;70.70
29663;DHT22;16578;53.266;7.920;2024-03-29T06:39:53;12.20;70.80
29663;DHT22;16578;53.266;7.920;2024-03-29T06:42:19;12.20;70.70
29663;DHT22;16578;53.266;7.920;2024-03-29T06:44:44;12.20;70.70
29663;DHT22;16578;53.266;7.920;2024-03-29T06:47:10;12.20;70.70
29663;DHT22;16578;53.266;7.920;2024-03-29T06:49:36;12.30;70.70
29663;DHT22;16578;53.266;7.920;2024-03-29T06:52:02;12.30;70.60
29663;DHT22;16578;53.266;7.920;2024-03-29T06:54:28;12.30;70.60
29663;DHT22;16578;53.266;7.920;2024-03-29T06:56:55;12.30;70.90
29663;DHT22;16578;53.266;7.920;2024-03-29T06:59:21;12.40;70.90
29663;DHT22;16578;53.266;7.920;2024-03-29T07:01:46;12.40;70.90
29663;DHT22;16578;53.266;7.920;2024-03-29T07:04:26;12.50;71.00
29663;DHT22;16578;53.266;7.920;2024-03-29T07:06:53;12.50;71.10
29663;DHT22;16578;53.266;7.920;2024-03-29T07:09:20;12.50;71.30
29663;DHT22;16578;53.266;7.920;2024-03-29T07:11:46;12.50;71.40
29663;DHT22;16578;53.266;7.920;2024-03-29T07:14:13;12.50;71.60
29663;DHT22;16578;53.266;7.920;2024-03-29T07:16:39;12.50;71.70
29663;DHT22;16578;53.266;7.920;2024-03-29T07:19:04;12.60;72.00
29663;DHT22;16578;53.266;7.920;2024-03-29T07:21:30;12.60;72.10
29663;DHT22;16578;53.266;7.920;2024-03-29T07:23:56;12.60;72.20
29663;DHT22;16578;53.266;7.920;2024-03-29T07:26:21;12.60;72.20
29663;DHT22;16578;53.266;7.920;2024-03-29T07:28:47;12.60;72.30
29663;DHT22;16578;53.266;7.920;2024-03-29T07:31:13;12.60;72.40
29663;DHT22;16578;53.266;7.920;2024-03-29T07:33:39;12.60;72.50
29663;DHT22;16578;53.266;7.920;2024-03-29T07:36:04;12.60;72.60
29663;DHT22;16578;53.266;7.920;2024-03-29T07:38:31;12.60;72.80
29663;DHT22;16578;53.266;7.920;2024-03-29T07:40:57;12.60;73.00
29663;DHT22;16578;53.266;7.920;2024-03-29T07:43:23;12.50;73.00
29663;DHT22;16578;53.266;7.920;2024-03-29T07:45:48;12.50;73.10
29663;DHT22;16578;53.266;7.920;2024-03-29T07:48:18;12.50;73.10
29663;DHT22;16578;53.266;7.920;2024-03-29T07:50:45;12.50;73.30
29663;DHT22;16578;53.266;7.920;2024-03-29T07:53:11;12.40;73.40
29663;DHT22;16578;53.266;7.920;2024-03-29T07:55:39;12.40;73.60
29663;DHT22;16578;53.266;7.920;2024-03-29T07:58:06;12.40;73.80
29663;DHT22;16578;53.266;7.920;2024-03-29T08:00:32;12.40;73.90
29663;DHT22;16578;53.266;7.920;2024-03-29T08:02:59;12.30;74.00
29663;DHT22;16578;53.266;7.920;2024-03-29T08:05:24;12.30;74.10
29663;DHT22;16578;53.266;7.920;2024-03-29T08:07:50;12.30;74.20
29663;DHT22;16578;53.266;7.920;2024-03-29T08:10:15;12.30;74.40
29663;DHT22;16578;53.266;7.920;2024-03-29T08:12:41;12.30;74.40
29663;DHT22;16578;53.266;7.920;2024-03-29T08:15:07;12.30;74.50
29663;DHT22;16578;53.266;7.920;2024-03-29T08:17:34;12.30;74.50
29663;DHT22;16578;53.266;7.920;2024-03-29T08:19:59;12.30;74.70
29663;DHT22;16578;53.266;7.920;2024-03-29T08:22:25;12.30;74.80
29663;DHT22;16578;53.266;7.920;2024-03-29T08:24:51;12.40;75.20
29663;DHT22;16578;53.266;7.920;2024-03-29T08:27:17;12.40;75.40
29663;DHT22;16578;53.266;7.920;2024-03-29T08:29:43;12.40;75.40
29663;DHT22;16578;53.266;7.920;2024-03-29T08:32:08;12.50;75.40
29663;DHT22;16578;53.266;7.920;2024-03-29T08:34:36;12.50;75.30
29663;DHT22;16578;53.266;7.920;2024-03-29T08:37:02;12.50;75.30
29663;DHT22;16578;53.266;7.920;2024-03-29T08:39:30;12.50;75.50
29663;DHT22;16578;53.266;7.920;2024-03-29T08:42:00;12.50;75.80
29663;DHT22;16578;53.266;7.920;2024-03-29T08:44:33;12.50;75.40
29663;DHT22;16578;53.266;7.920;2024-03-29T08:46:59;12.50;75.50
29663;DHT22;16578;53.266;7.920;2024-03-29T08:49:29;12.60;75.80
29663;DHT22;16578;53.266;7.920;2024-03-29T08:51:55;12.60;76.00
29663;DHT22;16578;53.266;7.920;2024-03-29T08:54:21;12.60;76.20
29663;DHT22;16578;53.266;7.920;2024-03-29T08:56:47;12.70;76.20
29663;DHT22;16578;53.266;7.920;2024-03-29T08:59:12;12.70;76.20
29663;DHT22;16578;53.266;7.920;2024-03-29T09:01:43;12.70;76.20
29663;DHT22;16578;53.266;7.920;2024-03-29T09:04:09;12.80;76.20
29663;DHT22;16578;53.266;7.920;2024-03-29T09:06:37;12.80;76.10
29663;DHT22;16578;53.266;7.920;2024-03-29T09:09:04;12.80;75.90
29663;DHT22;16578;53.266;7.920;2024-03-29T09:11:30;12.80;75.80
29663;DHT22;16578;53.266;7.920;2024-03-29T09:13:55;12.90;75.80
29663;DHT22;16578;53.266;7.920;2024-03-29T09:16:24;12.90;75.80
29663;DHT22;16578;53.266;7.920;2024-03-29T09:18:50;12.90;75.80
29663;DHT22;16578;53.266;7.920;2024-03-29T09:21:16;12.90;75.80
29663;DHT22;16578;53.266;7.920;2024-03-29T09:23:42;12.90;75.80
29663;DHT22;16578;53.266;7.920;2024-03-29T09:26:07;12.80;75.80
29663;DHT22;16578;53.266;7.920;2024-03-29T09:28:33;12.80;75.80
29663;DHT22;16578;53.266;7.920;2024-03-29T09:31:02;12.80;75.80
29663;DHT22;16578;53.266;7.920;2024-03-29T09:33:28;12.80;75.80
29663;DHT22;16578;53.266;7.920;2024-03-29T09:35:54;12.80;75.80
29663;DHT22;16578;53.266;7.920;2024-03-29T09:38:20;12.80;76.00
29663;DHT22;16578;53.266;7.920;2024-03-29T09:40:46;12.80;76.20
29663;DHT22;16578;53.266;7.920;2024-03-29T09:43:14;12.80;76.30
29663;DHT22;16578;53.266;7.920;2024-03-29T09:45:40;12.80;76.50
29663;DHT22;16578;53.266;7.920;2024-03-29T09:48:08;12.80;76.60
29663;DHT22;16578;53.266;7.920;2024-03-29T09:50:35;12.90;76.80
29663;DHT22;16578;53.266;7.920;2024-03-29T09:53:02;12.90;77.00
29663;DHT22;16578;53.266;7.920;2024-03-29T09:55:28;13.00;77.20
29663;DHT22;16578;53.266;7.920;2024-03-29T09:57:55;13.00;77.40
29663;DHT22;16578;53.266;7.920;2024-03-29T10:00:20;13.10;77.60
29663;DHT22;16578;53.266;7.920;2024-03-29T10:02:49;13.10;77.50
29663;DHT22;16578;53.266;7.920;2024-03-29T10:05:15;13.20;77.20
29663;DHT22;16578;53.266;7.920;2024-03-29T10:07:43;13.30;77.20
29663;DHT22;16578;53.266;7.920;2024-03-29T10:10:12;13.30;77.10
29663;DHT22;16578;53.266;7.920;2024-03-29T10:12:38;13.40;77.20
29663;DHT22;16578;53.266;7.920;2024-03-29T10:15:04;13.50;77.10
29663;DHT22;16578;53.266;7.920;2024-03-29T10:17:56;13.50;76.90
29663;DHT22;16578;53.266;7.920;2024-03-29T10:20:22;13.60;76.90
29663;DHT22;16578;53.266;7.920;2024-03-29T10:22:48;13.60;77.00
29663;DHT22;16578;53.266;7.920;2024-03-29T10:25:14;13.70;77.20
29663;DHT22;16578;53.266;7.920;2024-03-29T10:27:40;13.80;77.10
29663;DHT22;16578;53.266;7.920;2024-03-29T10:30:10;13.90;76.80
29663;DHT22;16578;53.266;7.920;2024-03-29T10:32:39;14.00;76.50
29663;DHT22;16578;53.266;7.920;2024-03-29T10:35:05;14.00;76.30
29663;DHT22;16578;53.266;7.920;2024-03-29T10:37:31;14.00;76.10
29663;DHT22;16578;53.266;7.920;2024-03-29T10:40:01;14.10;76.10
29663;DHT22;16578;53.266;7.920;2024-03-29T10:42:29;14.10;76.30
29663;DHT22;16578;53.266;7.920;2024-03-29T10:44:55;14.30;76.80
29663;DHT22;16578;53.266;7.920;2024-03-29T10:47:23;14.30;77.00
29663;DHT22;16578;53.266;7.920;2024-03-29T10:49:50;14.50;77.00
29663;DHT22;16578;53.266;7.920;2024-03-29T10:52:21;14.50;76.90
29663;DHT22;16578;53.266;7.920;2024-03-29T10:54:47;14.70;76.20
29663;DHT22;16578;53.266;7.920;2024-03-29T10:57:33;14.80;75.80
29663;DHT22;16578;53.266;7.920;2024-03-29T11:00:08;14.90;75.20
29663;DHT22;16578;53.266;7.920;2024-03-29T11:02:49;15.00;75.20
29663;DHT22;16578;53.266;7.920;2024-03-29T11:05:18;15.10;75.00
29663;DHT22;16578;53.266;7.920;2024-03-29T11:07:44;15.10;74.80
29663;DHT22;16578;53.266;7.920;2024-03-29T11:10:25;15.20;74.10
29663;DHT22;16578;53.266;7.920;2024-03-29T11:13:00;15.20;73.20
29663;DHT22;16578;53.266;7.920;2024-03-29T11:15:30;15.30;73.30
29663;DHT22;16578;53.266;7.920;2024-03-29T11:17:56;15.30;73.10
29663;DHT22;16578;53.266;7.920;2024-03-29T11:20:24;15.30;73.20
29663;DHT22;16578;53.266;7.920;2024-03-29T11:23:00;15.30;73.20
29663;DHT22;16578;53.266;7.920;2024-03-29T11:25:41;15.40;73.40
29663;DHT22;16578;53.266;7.920;2024-03-29T11:28:08;15.40;72.80
29663;DHT22;16578;53.266;7.920;2024-03-29T11:30:48;15.50;72.80
29663;DHT22;16578;53.266;7.920;2024-03-29T11:33:32;15.60;72.50
29663;DHT22;16578;53.266;7.920;2024-03-29T11:35:59;15.60;72.40
29663;DHT22;16578;53.266;7.920;2024-03-29T11:38:33;15.70;72.50
29663;DHT22;16578;53.266;7.920;2024-03-29T11:41:03;15.70;72.10
29663;DHT22;16578;53.266;7.920;2024-03-29T11:43:33;15.80;71.90
29663;DHT22;16578;53.266;7.920;2024-03-29T11:46:00;15.80;71.60
29663;DHT22;16578;53.266;7.920;2024-03-29T11:48:27;15.80;71.70
29663;DHT22;16578;53.266;7.920;2024-03-29T11:50:53;15.90;71.60
29663;DHT22;16578;53.266;7.920;2024-03-29T11:53:20;15.90;71.40
29663;DHT22;16578;53.266;7.920;2024-03-29T11:55:46;16.00;71.20
29663;DHT22;16578;53.266;7.920;2024-03-29T11:58:11;16.00;71.00
29663;DHT22;16578;53.266;7.920;2024-03-29T12:00:39;16.00;71.00
29663;DHT22;16578;53.266;7.920;2024-03-29T12:03:05;16.10;70.90
29663;DHT22;16578;53.266;7.920;2024-03-29T12:05:32;16.10;71.00
29663;DHT22;16578;53.266;7.920;2024-03-29T12:07:58;16.10;70.80
29663;DHT22;16578;53.266;7.920;2024-03-29T12:10:28;16.20;70.70
29663;DHT22;16578;53.266;7.920;2024-03-29T12:12:56;16.20;70.30
29663;DHT22;16578;53.266;7.920;2024-03-29T12:15:25;16.30;70.40
29663;DHT22;16578;53.266;7.920;2024-03-29T12:17:58;16.20;70.60
29663;DHT22;16578;53.266;7.920;2024-03-29T12:20:24;16.30;70.40
29663;DHT22;16578;53.266;7.920;2024-03-29T12:22:50;16.30;70.20
29663;DHT22;16578;53.266;7.920;2024-03-29T12:25:16;16.40;70.00
29663;DHT22;16578;53.266;7.920;2024-03-29T12:27:43;16.40;69.70
29663;DHT22;16578;53.266;7.920;2024-03-29T12:30:09;16.40;69.50
29663;DHT22;16578;53.266;7.920;2024-03-29T12:32:35;16.50;69.60
29663;DHT22;16578;53.266;7.920;2024-03-29T12:35:10;16.50;69.80
29663;DHT22;16578;53.266;7.920;2024-03-29T12:37:36;16.50;69.70
29663;DHT22;16578;53.266;7.920;2024-03-29T12:40:04;16.60;69.80
29663;DHT22;16578;53.266;7.920;2024-03-29T12:42:40;16.60;69.60
29663;DHT22;16578;53.266;7.920;2024-03-29T12:45:07;16.60;69.50
29663;DHT22;16578;53.266;7.920;2024-03-29T12:47:34;16.70;69.30
29663;DHT22;16578;53.266;7.920;2024-03-29T12:50:00;16.70;68.80
29663;DHT22;16578;53.266;7.920;2024-03-29T12:52:26;16.70;68.40
29663;DHT22;16578;53.266;7.920;2024-03-29T12:54:52;16.70;68.30
29663;DHT22;16578;53.266;7.920;2024-03-29T12:57:17;16.70;68.30
29663;DHT22;16578;53.266;7.920;2024-03-29T12:59:44;16.80;68.10
29663;DHT22;16578;53.266;7.920;2024-03-29T13:02:12;16.80;68.00
29663;DHT22;16578;53.266;7.920;2024-03-29T13:04:38;16.80;68.20
29663;DHT22;16578;53.266;7.920;2024-03-29T13:07:09;16.80;68.00
29663;DHT22;16578;53.266;7.920;2024-03-29T13:09:34;16.80;68.00
29663;DHT22;16578;53.266;7.920;2024-03-29T13:12:00;16.80;67.80
29663;DHT22;16578;53.266;7.920;2024-03-29T13:14:25;16.80;67.70
29663;DHT22;16578;53.266;7.920;2024-03-29T13:16:51;16.80;67.80
29663;DHT22;16578;53.266;7.920;2024-03-29T13:19:16;16.90;67.70
29663;DHT22;16578;53.266;7.920;2024-03-29T13:21:42;16.90;67.70
29663;DHT22;16578;53.266;7.920;2024-03-29T13:24:08;16.90;67.90
29663;DHT22;16578;53.266;7.920;2024-03-29T13:26:33;16.90;67.70
29663;DHT22;16578;53.266;7.920;2024-03-29T13:28:59;16.90;67.30
29663;DHT22;16578;53.266;7.920;2024-03-29T13:31:25;16.90;67.20
29663;DHT22;16578;53.266;7.920;2024-03-29T13:33:53;16.90;67.10
29663;DHT22;16578;53.266;7.920;2024-03-29T13:36:25;16.90;67.10
29663;DHT22;16578;53.266;7.920;2024-03-29T13:38:51;16.90;66.90
29663;DHT22;16578;53.266;7.920;2024-03-29T13:41:17;16.90;66.80
29663;DHT22;16578;53.266;7.920;2024-03-29T13:43:44;16.90;66.80
29663;DHT22;16578;53.266;7.920;2024-03-29T13:46:10;16.80;66.80
29663;DHT22;16578;53.266;7.920;2024-03-29T13:48:35;16.80;66.90
29663;DHT22;16578;53.266;7.920;2024-03-29T13:51:01;16.80;66.80
29663;DHT22;16578;53.266;7.920;2024-03-29T13:53:27;16.80;66.80
29663;DHT22;16578;53.266;7.920;2024-03-29T13:55:54;16.80;66.80
29663;DHT22;16578;53.266;7.920;2024-03-29T13:58:19;16.80;66.80
29663;DHT22;16578;53.266;7.920;2024-03-29T14:00:45;16.70;66.80
29663;DHT22;16578;53.266;7.920;2024-03-29T14:03:10;16.70;67.10
29663;DHT22;16578;53.266;7.920;2024-03-29T14:05:37;16.70;67.10
29663;DHT22;16578;53.266;7.920;2024-03-29T14:08:04;16.70;67.00
29663;DHT22;16578;53.266;7.920;2024-03-29T14:10:30;16.60;67.00
29663;DHT22;16578;53.266;7.920;2024-03-29T14:12:56;16.60;67.10
29663;DHT22;16578;53.266;7.920;2024-03-29T14:15:22;16.60;67.10
29663;DHT22;16578;53.266;7.920;2024-03-29T14:17:47;16.60;67.00
29663;DHT22;16578;53.266;7.920;2024-03-29T14:20:13;16.50;67.10
29663;DHT22;16578;53.266;7.920;2024-03-29T14:22:39;16.50;67.50
29663;DHT22;16578;53.266;7.920;2024-03-29T14:25:05;16.50;67.60
29663;DHT22;16578;53.266;7.920;2024-03-29T14:27:35;16.50;67.70
29663;DHT22;16578;53.266;7.920;2024-03-29T14:30:09;16.50;68.10
29663;DHT22;16578;53.266;7.920;2024-03-29T14:32:35;16.50;68.00
29663;DHT22;16578;53.266;7.920;2024-03-29T14:35:01;16.50;68.00
29663;DHT22;16578;53.266;7.920;2024-03-29T14:37:26;16.60;68.00
29663;DHT22;16578;53.266;7.920;2024-03-29T14:39:52;16.60;68.10
29663;DHT22;16578;53.266;7.920;2024-03-29T14:42:17;16.60;68.10
29663;DHT22;16578;53.266;7.920;2024-03-29T14:44:48;16.70;68.20
29663;DHT22;16578;53.266;7.920;2024-03-29T14:47:14;16.70;68.10
29663;DHT22;16578;53.266;7.920;2024-03-29T14:49:42;16.80;68.00
29663;DHT22;16578;53.266;7.920;2024-03-29T14:52:08;16.70;68.10
29663;DHT22;16578;53.266;7.920;2024-03-29T14:54:33;16.80;68.10
29663;DHT22;16578;53.266;7.920;2024-03-29T14:56:59;16.90;67.80
29663;DHT22;16578;53.266;7.920;2024-03-29T14:59:24;16.90;67.80
29663;DHT22;16578;53.266;7.920;2024-03-29T15:01:51;17.00;67.80
29663;DHT22;16578;53.266;7.920;2024-03-29T15:04:17;17.00;67.60
29663;DHT22;16578;53.266;7.920;2024-03-29T15:06:42;17.10;67.50
29663;DHT22;16578;53.266;7.920;2024-03-29T15:09:08;17.10;67.20
29663;DHT22;16578;53.266;7.920;2024-03-29T15:11:33;17.20;67.00
29663;DHT22;16578;53.266;7.920;2024-03-29T15:14:00;17.20;66.70
29663;DHT22;16578;53.266;7.920;2024-03-29T15:16:26;17.20;66.40
29663;DHT22;16578;53.266;7.920;2024-03-29T15:18:53;17.20;66.30
29663;DHT22;16578;53.266;7.920;2024-03-29T15:21:22;17.20;66.20
29663;DHT22;16578;53.266;7.920;2024-03-29T15:23:48;17.20;66.10
29663;DHT22;16578;53.266;7.920;2024-03-29T15:26:14;17.20;66.00
29663;DHT22;16578;53.266;7.920;2024-03-29T15:28:41;17.30;65.90